createdAt,value
2022-12-22T00:01:44.827Z,100417.28
2022-12-22T00:04:15.315Z,100453.78
2022-12-22T00:06:42.298Z,100391.16
2022-12-22T00:09:09.017Z,100345.47
2022-12-22T00:11:35.870Z,100408.97
2022-12-22T00:14:02.630Z,100479.16
2022-12-22T00:16:34.214Z,100313.69
2022-12-22T00:19:13.287Z,100466.47
2022-12-22T00:21:40.328Z,100284.34
2022-12-22T00:24:07.261Z,100369.88
2022-12-22T00:26:35.801Z,100432.47
2022-12-22T00:29:03.238Z,100373.66
2022-12-22T00:31:31.381Z,100429.25
2022-12-22T00:34:00.138Z,100420.34
2022-12-22T00:36:29.452Z,100412.53
2022-12-22T00:38:56.509Z,100447.06
2022-12-22T00:41:23.438Z,100387.72
2022-12-22T00:43:50.511Z,100409.03
2022-12-22T00:46:18.497Z,100434.69
2022-12-22T00:48:45.673Z,100373.16
2022-12-22T00:51:12.725Z,100358.34
2022-12-22T00:56:23.349Z,100322.72
2022-12-22T00:58:52.165Z,100443.88
2022-12-22T01:01:19.159Z,100245.31
2022-12-22T01:03:46.229Z,100287.91
2022-12-22T01:06:13.354Z,100417.94
2022-12-22T01:08:41.898Z,100355.34
2022-12-22T01:11:08.795Z,100368.06
2022-12-22T01:13:35.714Z,100409.88
2022-12-22T01:16:02.699Z,100394.25
2022-12-22T01:18:29.625Z,100416.91
2022-12-22T01:20:56.926Z,100366.19
2022-12-22T01:23:23.636Z,100408.81
2022-12-22T01:25:51.755Z,100300.13
2022-12-22T01:28:18.540Z,100214.63
2022-12-22T01:30:46.660Z,100404.75
2022-12-22T01:33:13.836Z,100414.22
2022-12-22T01:35:40.538Z,100409.06
2022-12-22T01:38:07.248Z,100412.31
2022-12-22T01:40:34.002Z,100399.09
2022-12-22T01:43:02.393Z,100412.31
2022-12-22T01:45:31.489Z,100410.69
2022-12-22T01:47:58.427Z,100404.50
2022-12-22T01:50:29.179Z,100396.97
2022-12-22T01:52:56.999Z,100374.81
2022-12-22T01:55:25.939Z,100396.41
2022-12-22T01:57:53.125Z,100310.66
2022-12-22T02:00:21.844Z,100316.56
2022-12-22T02:02:51.419Z,100334.38
2022-12-22T02:05:19.519Z,100351.63
2022-12-22T02:07:56.572Z,100284.78
2022-12-22T02:10:41.275Z,100268.81
2022-12-22T02:13:21.366Z,100366.47
2022-12-22T02:15:53.687Z,100184.47
2022-12-22T02:18:25.826Z,100263.72
2022-12-22T02:20:56.660Z,100247.56
2022-12-22T02:23:46.927Z,100369.44
2022-12-22T02:26:27.108Z,100365.69
2022-12-22T02:28:54.303Z,100369.72
2022-12-22T02:31:21.370Z,100351.66
2022-12-22T02:33:48.436Z,100360.28
2022-12-22T02:36:25.625Z,100354.91
2022-12-22T02:39:05.205Z,100355.72
2022-12-22T02:41:43.044Z,100358.13
2022-12-22T02:44:26.003Z,100297.22
2022-12-22T02:47:00.958Z,100352.19
2022-12-22T02:49:35.332Z,100318.78
2022-12-22T02:52:10.329Z,100328.75
2022-12-22T02:54:37.117Z,100311.22
2022-12-22T02:57:06.465Z,100351.91
2022-12-22T02:59:33.191Z,100351.09
2022-12-22T03:02:00.323Z,100355.41
2022-12-22T03:04:27.232Z,100317.41
2022-12-22T03:06:53.991Z,100343.00
2022-12-22T03:09:20.661Z,100347.63
2022-12-22T03:11:47.331Z,100349.50
2022-12-22T03:14:15.451Z,100344.38
2022-12-22T03:16:42.180Z,100335.47
2022-12-22T03:19:09.003Z,100341.41
2022-12-22T03:21:37.087Z,100281.31
2022-12-22T03:24:04.012Z,100282.38
2022-12-22T03:26:30.719Z,100338.44
2022-12-22T03:28:57.423Z,100324.16
2022-12-22T03:31:25.599Z,100308.25
2022-12-22T03:33:52.287Z,100325.50
2022-12-22T03:36:19.040Z,100322.81
2022-12-22T03:38:45.724Z,100305.56
2022-12-22T03:41:12.352Z,100276.97
2022-12-22T03:43:39.097Z,100298.28
2022-12-22T03:46:06.127Z,100309.06
2022-12-22T03:48:35.580Z,100319.84
2022-12-22T03:51:02.263Z,100318.22
2022-12-22T03:53:28.912Z,100313.38
2022-12-22T03:55:55.740Z,100280.22
2022-12-22T03:58:22.551Z,100289.66
2022-12-22T04:00:49.645Z,100223.38
2022-12-22T04:03:16.598Z,100271.34
2022-12-22T04:05:45.489Z,100231.72
2022-12-22T04:08:13.220Z,100291.00
2022-12-22T04:10:39.965Z,100310.41
2022-12-22T04:13:06.805Z,100138.22
2022-12-22T04:15:33.594Z,100319.56
2022-12-22T04:18:00.645Z,100250.84
2022-12-22T04:20:30.001Z,100317.16
2022-12-22T04:22:58.387Z,100310.94
2022-12-22T04:25:26.941Z,100191.28
2022-12-22T04:27:53.786Z,100299.91
2022-12-22T04:30:20.820Z,100255.44
2022-12-22T04:32:47.560Z,100208.56
2022-12-22T04:35:14.384Z,100225.78
2022-12-22T04:37:43.787Z,100313.09
2022-12-22T04:40:12.393Z,100294.78
2022-12-22T04:42:39.166Z,100176.47
2022-12-22T04:45:07.135Z,100194.78
2022-12-22T04:47:33.914Z,100118.81
2022-12-22T04:50:00.635Z,100156.53
2022-12-22T04:52:27.305Z,100271.34
2022-12-22T04:54:54.153Z,100303.13
2022-12-22T04:57:22.335Z,100217.69
2022-12-22T04:59:49.064Z,100221.22
2022-12-22T05:02:16.336Z,100119.38
2022-12-22T05:04:43.167Z,100301.78
2022-12-22T05:07:10.043Z,100286.44
2022-12-22T05:09:36.770Z,100250.59
2022-12-22T05:12:03.926Z,100294.53
2022-12-22T05:14:32.082Z,100269.16
2022-12-22T05:16:59.252Z,100310.13
2022-12-22T05:19:30.612Z,100254.09
2022-12-22T05:21:57.866Z,100314.47
2022-12-22T05:24:24.901Z,100318.78
2022-12-22T05:26:51.765Z,100318.78
2022-12-22T05:29:18.482Z,100289.38
2022-12-22T05:31:47.501Z,100322.53
2022-12-22T05:34:14.575Z,100319.28
2022-12-22T05:36:41.574Z,100119.34
2022-12-22T05:39:08.498Z,100188.81
2022-12-22T05:41:35.360Z,100324.16
2022-12-22T05:44:02.140Z,100337.63
2022-12-22T05:46:28.952Z,100233.59
2022-12-22T05:48:57.583Z,100117.19
2022-12-22T05:51:24.558Z,100257.31
2022-12-22T05:53:51.338Z,100127.41
2022-12-22T05:56:18.169Z,100119.59
2022-12-22T05:58:44.887Z,100289.94
2022-12-22T06:01:11.838Z,100165.91
2022-12-22T06:03:38.797Z,100313.38
2022-12-22T06:06:07.661Z,100305.28
2022-12-22T06:08:34.424Z,100311.47
2022-12-22T06:11:01.296Z,100292.84
2022-12-22T06:13:27.971Z,100215.16
2022-12-22T06:15:54.876Z,100205.44
2022-12-22T06:18:22.184Z,100132.72
2022-12-22T06:20:51.595Z,100291.16
2022-12-22T06:23:19.692Z,100303.59
2022-12-22T06:25:54.235Z,100144.47
2022-12-22T06:28:21.002Z,100264.97
2022-12-22T06:30:48.472Z,100200.00
2022-12-22T06:33:15.685Z,100122.09
2022-12-22T06:35:44.200Z,100180.03
2022-12-22T06:38:12.011Z,100322.94
2022-12-22T06:40:40.114Z,100326.13
2022-12-22T06:43:09.095Z,100243.59
2022-12-22T06:45:37.530Z,100305.06
2022-12-22T06:48:04.640Z,100175.34
2022-12-22T06:50:32.073Z,100217.94
2022-12-22T06:52:59.538Z,100254.31
2022-12-22T06:55:26.437Z,100241.59
2022-12-22T06:57:54.846Z,100344.66
2022-12-22T07:00:22.299Z,100334.38
2022-12-22T07:02:49.339Z,100267.69
2022-12-22T07:05:16.497Z,100351.81
2022-12-22T07:07:43.192Z,100366.94
2022-12-22T07:10:10.673Z,100372.28
2022-12-22T07:12:37.406Z,100374.97
2022-12-22T07:15:06.837Z,100363.84
2022-12-22T07:17:33.763Z,100392.13
2022-12-22T07:20:00.813Z,100355.91
2022-12-22T07:22:30.209Z,100399.63
2022-12-22T07:24:57.883Z,100285.50
2022-12-22T07:27:24.508Z,100397.91
2022-12-22T07:29:51.223Z,100406.75
2022-12-22T07:32:19.500Z,100399.94
2022-12-22T07:34:46.319Z,100395.09
2022-12-22T07:37:13.038Z,100405.00
2022-12-22T07:39:39.770Z,100320.69
2022-12-22T07:42:06.447Z,100378.09
2022-12-22T07:44:33.170Z,100407.88
2022-12-22T07:46:59.982Z,100412.16
2022-12-22T07:49:30.034Z,100400.03
2022-12-22T07:51:57.517Z,100416.88
2022-12-22T07:54:25.284Z,100414.72
2022-12-22T07:56:52.480Z,100320.53
2022-12-22T07:59:19.371Z,100412.28
2022-12-22T08:01:46.302Z,100418.41
2022-12-22T08:04:14.313Z,100413.00
2022-12-22T08:06:42.881Z,100345.91
2022-12-22T08:09:13.053Z,100421.50
2022-12-22T08:11:39.784Z,100418.78
2022-12-22T08:14:06.524Z,100417.78
2022-12-22T08:16:33.391Z,100415.22
2022-12-22T08:19:00.253Z,100432.84
2022-12-22T08:21:27.242Z,100438.44
2022-12-22T08:23:55.897Z,100436.31
2022-12-22T08:26:28.692Z,100423.84
2022-12-22T08:29:01.774Z,100439.81
2022-12-22T08:31:30.474Z,100384.06
2022-12-22T08:33:59.809Z,100446.75
2022-12-22T08:36:27.434Z,100404.13
2022-12-22T08:38:56.337Z,100452.75
2022-12-22T08:41:23.090Z,100451.13
2022-12-22T08:43:50.091Z,100455.97
2022-12-22T08:46:16.858Z,100362.75
2022-12-22T08:48:43.718Z,100427.47
2022-12-22T08:51:10.399Z,100446.91
2022-12-22T08:54:03.944Z,100453.91
2022-12-22T08:56:25.710Z,100463.84
2022-12-22T08:58:52.513Z,100397.59
2022-12-22T09:01:21.406Z,100436.25
2022-12-22T09:03:49.416Z,100470.31
2022-12-22T09:06:17.462Z,100470.09
2022-12-22T09:08:44.337Z,100453.81
2022-12-22T09:11:11.361Z,100476.56
2022-12-22T09:13:41.685Z,100476.56
2022-12-22T09:16:11.826Z,100449.00
2022-12-22T09:18:39.678Z,100277.03
2022-12-22T09:21:06.705Z,100466.00
2022-12-22T09:23:34.284Z,100330.41
2022-12-22T09:26:10.094Z,100294.69
2022-12-22T09:28:40.098Z,100300.94
2022-12-22T09:31:08.771Z,100473.19
2022-12-22T09:33:36.547Z,100400.59
2022-12-22T09:36:06.099Z,100420.66
2022-12-22T09:38:32.912Z,100324.41
2022-12-22T09:41:10.585Z,100287.28
2022-12-22T09:43:38.971Z,100358.22
2022-12-22T09:46:06.728Z,100475.91
2022-12-22T09:49:36.199Z,100492.38
2022-12-22T10:23:18.636Z,100513.75
2022-12-22T10:28:53.811Z,100318.75
2022-12-22T10:31:22.919Z,100390.25
2022-12-22T10:33:52.157Z,100512.41
2022-12-22T10:36:24.849Z,100529.59
2022-12-22T10:39:02.155Z,100465.88
2022-12-22T10:41:32.722Z,100434.97
2022-12-22T10:44:06.945Z,100299.84
2022-12-22T10:46:37.349Z,100421.47
2022-12-22T10:49:15.359Z,100314.34
2022-12-22T10:51:48.246Z,100405.28
2022-12-22T10:54:36.844Z,100507.84
2022-12-22T10:57:20.683Z,100475.88
2022-12-22T10:59:52.532Z,100514.00
2022-12-22T11:02:27.062Z,100318.03
2022-12-22T11:04:55.233Z,100426.75
2022-12-22T11:07:24.476Z,100528.56
2022-12-22T11:10:09.002Z,100528.06
2022-12-22T11:12:50.004Z,100528.28
2022-12-22T11:15:29.491Z,100468.22
2022-12-22T11:18:05.965Z,100409.94
2022-12-22T11:20:48.928Z,100477.50
2022-12-22T11:23:24.837Z,100534.28
2022-12-22T11:26:04.249Z,100383.81
2022-12-22T11:28:57.182Z,100522.53
2022-12-22T11:31:54.276Z,100337.09
2022-12-22T11:37:44.150Z,100519.00
2022-12-22T11:40:28.308Z,100352.28
2022-12-22T11:43:21.403Z,100518.00
2022-12-22T11:46:00.822Z,100514.25
2022-12-22T11:48:46.183Z,100418.59
2022-12-22T11:51:25.499Z,100523.19
2022-12-22T11:54:12.701Z,100529.38
2022-12-22T11:56:42.961Z,100523.25
2022-12-22T11:59:35.147Z,100497.34
2022-12-22T12:02:34.199Z,100524.44
2022-12-22T12:05:18.237Z,100521.78
2022-12-22T12:07:48.803Z,100515.19
2022-12-22T12:10:22.088Z,100526.19
2022-12-22T12:12:59.685Z,100477.81
2022-12-22T12:15:31.041Z,100513.13
2022-12-22T12:18:21.551Z,100521.41
2022-12-22T12:21:02.640Z,100522.53
2022-12-22T12:23:49.842Z,100524.31
2022-12-22T12:26:20.035Z,100523.25
2022-12-22T12:28:59.108Z,100527.53
2022-12-22T12:31:32.817Z,100524.19
2022-12-22T12:34:01.456Z,100529.53
2022-12-22T12:36:39.107Z,100530.00
2022-12-22T12:39:14.159Z,100506.16
2022-12-22T12:41:51.168Z,100513.28
2022-12-22T12:44:24.919Z,100531.94
2022-12-22T12:47:23.743Z,100531.91
2022-12-22T12:50:23.885Z,100531.19
2022-12-22T12:53:14.806Z,100528.53
2022-12-22T12:56:02.001Z,100530.69
2022-12-22T12:58:48.023Z,100537.84
2022-12-22T13:01:56.832Z,100528.53
2022-12-22T13:05:09.573Z,100537.50
2022-12-22T13:08:10.107Z,100531.41
2022-12-22T13:10:42.703Z,100536.28
2022-12-22T13:13:28.490Z,100535.41
2022-12-22T13:16:31.154Z,100530.28
2022-12-22T13:19:02.534Z,100533.31
2022-12-22T13:21:54.638Z,100527.97
2022-12-22T13:24:28.726Z,100485.94
2022-12-22T13:27:03.589Z,100517.00
2022-12-22T13:29:40.871Z,100487.03
2022-12-22T13:32:22.368Z,100516.19
2022-12-22T13:37:43.252Z,100511.31
2022-12-22T13:40:13.719Z,100528.06
2022-12-22T13:42:42.868Z,100534.53
2022-12-22T13:45:18.027Z,100542.13
2022-12-22T13:47:50.428Z,100432.25
2022-12-22T13:50:19.638Z,100445.22
2022-12-22T13:52:46.661Z,100545.88
2022-12-22T13:55:16.065Z,100546.97
2022-12-22T13:57:43.233Z,100550.72
2022-12-22T14:00:19.300Z,100525.91
2022-12-22T14:02:48.001Z,100546.41
2022-12-22T14:05:15.177Z,100535.09
2022-12-22T14:07:58.115Z,100543.72
2022-12-22T14:10:32.167Z,100529.69
2022-12-22T14:13:04.444Z,100524.56
2022-12-22T14:15:31.375Z,100533.72
2022-12-22T14:18:01.240Z,100542.63
2022-12-22T14:20:32.820Z,100528.06
2022-12-22T14:23:03.911Z,100549.41
2022-12-22T14:25:34.358Z,100534.28
2022-12-22T14:28:02.284Z,100540.22
2022-12-22T14:30:38.218Z,100534.53
2022-12-22T14:33:25.758Z,100532.91
2022-12-22T14:36:05.298Z,100478.34
2022-12-22T14:38:39.571Z,100526.72
2022-12-22T14:41:11.235Z,100508.88
2022-12-22T14:43:37.885Z,100527.50
2022-12-22T14:46:07.913Z,100522.59
2022-12-22T14:48:39.306Z,100538.56
2022-12-22T14:51:06.969Z,100539.34
2022-12-22T14:53:43.545Z,100530.19
2022-12-22T14:56:12.425Z,100539.84
2022-12-22T14:58:40.490Z,100450.44
2022-12-22T15:01:20.043Z,100544.16
2022-12-22T15:04:05.538Z,100534.97
2022-12-22T15:06:38.787Z,100517.66
2022-12-22T15:09:09.820Z,100526.03
2022-12-22T15:11:39.477Z,100505.19
2022-12-22T15:14:11.709Z,100484.63
2022-12-22T15:16:38.569Z,100530.50
2022-12-22T15:19:07.155Z,100494.84
2022-12-22T15:21:34.880Z,100476.72
2022-12-22T15:24:01.969Z,100520.78
2022-12-22T15:26:31.817Z,100508.31
2022-12-22T15:29:02.796Z,100539.06
2022-12-22T15:31:29.675Z,100528.78
2022-12-22T15:34:01.113Z,100537.41
2022-12-22T15:36:29.395Z,100533.56
2022-12-22T15:38:56.284Z,100530.34
2022-12-22T15:41:23.180Z,100538.13
2022-12-22T15:43:58.652Z,100512.09
2022-12-22T15:46:25.951Z,100532.41
2022-12-22T15:48:53.123Z,100476.13
2022-12-22T15:51:24.547Z,100526.41
2022-12-22T15:53:53.347Z,100527.97
2022-12-22T15:56:22.723Z,100529.06
2022-12-22T16:01:58.423Z,100525.53
2022-12-22T16:04:30.437Z,100435.78
2022-12-22T16:06:59.024Z,100450.34
2022-12-22T16:09:44.165Z,100325.53
2022-12-22T16:12:17.327Z,100529.28
2022-12-22T16:14:50.793Z,100437.06
2022-12-22T16:17:54.894Z,100525.53
2022-12-22T16:20:37.476Z,100292.88
2022-12-22T16:23:37.594Z,100522.84
2022-12-22T16:26:06.255Z,100372.72
2022-12-22T16:29:18.271Z,100309.31
2022-12-22T16:32:21.452Z,100532.44
2022-12-22T16:40:54.903Z,100370.22
2022-12-22T16:44:05.450Z,100335.47
2022-12-22T16:47:34.922Z,100463.53
2022-12-22T16:49:50.418Z,100521.38
2022-12-22T16:52:42.770Z,100516.25
2022-12-22T16:55:40.057Z,100416.81
2022-12-22T16:59:01.246Z,100396.75
2022-12-22T17:01:35.136Z,100338.91
2022-12-22T17:04:05.650Z,100394.84
2022-12-22T17:06:33.144Z,100292.22
2022-12-22T17:09:04.963Z,100416.97
2022-12-22T17:11:32.033Z,100394.69
2022-12-22T17:14:05.776Z,100507.28
2022-12-22T17:16:34.292Z,100511.31
2022-12-22T17:19:01.078Z,100472.69
2022-12-22T17:21:28.275Z,100500.78
2022-12-22T17:23:58.583Z,100407.81
2022-12-22T17:26:25.982Z,100280.84
2022-12-22T17:28:53.475Z,100473.25
2022-12-22T17:31:22.375Z,100313.78
2022-12-22T17:33:51.155Z,100411.72
2022-12-22T17:36:25.929Z,100486.84
2022-12-22T17:38:53.710Z,100364.50
2022-12-22T17:41:20.544Z,100464.16
2022-12-22T17:43:47.419Z,100405.84
2022-12-22T17:46:16.554Z,100382.63
2022-12-22T17:48:45.489Z,100349.31
2022-12-22T17:51:22.181Z,100469.13
2022-12-22T17:53:49.271Z,100244.41
2022-12-22T17:56:18.274Z,100253.28
2022-12-22T17:58:45.371Z,100409.75
2022-12-22T18:01:23.943Z,100285.28
2022-12-22T18:03:51.227Z,100447.63
2022-12-22T18:06:21.917Z,100449.25
2022-12-22T18:08:49.516Z,100421.97
2022-12-22T18:11:16.819Z,100438.75
2022-12-22T18:13:43.674Z,100271.28
2022-12-22T18:16:14.807Z,100366.66
2022-12-22T18:18:42.721Z,100352.34
2022-12-22T18:21:14.846Z,100443.09
2022-12-22T18:23:49.865Z,100432.03
2022-12-22T18:26:21.241Z,100441.47
2022-12-22T18:28:48.848Z,100375.53
2022-12-22T18:31:15.654Z,100438.78
2022-12-22T18:33:42.622Z,100431.78
2022-12-22T18:36:16.821Z,100429.84
2022-12-22T18:38:46.441Z,100378.59
2022-12-22T18:41:18.670Z,100432.06
2022-12-22T18:43:45.700Z,100295.38
2022-12-22T18:46:12.603Z,100395.38
2022-12-22T18:48:39.448Z,100402.94
2022-12-22T18:51:17.975Z,100426.16
2022-12-22T18:53:46.443Z,100293.28
2022-12-22T18:56:14.367Z,100450.91
2022-12-22T18:58:41.722Z,100198.91
2022-12-22T19:01:18.229Z,100298.47
2022-12-22T19:03:44.950Z,100429.38
2022-12-22T19:06:11.702Z,100317.38
2022-12-22T19:08:45.135Z,100229.69
2022-12-22T19:11:16.279Z,100387.16
2022-12-22T19:13:45.209Z,100246.00
2022-12-22T19:16:16.324Z,100224.41
2022-12-22T19:18:44.217Z,100151.09
2022-12-22T19:21:15.638Z,100302.44
2022-12-22T19:23:42.234Z,100373.94
2022-12-22T19:26:20.303Z,100215.69
2022-12-22T19:28:51.334Z,100356.09
2022-12-22T19:31:24.720Z,100155.38
2022-12-22T19:33:52.510Z,100261.38
2022-12-22T19:36:21.891Z,100291.63
2022-12-22T19:38:51.077Z,100202.56
2022-12-22T19:41:30.142Z,100154.81
2022-12-22T19:43:57.359Z,100217.16
2022-12-22T19:46:25.974Z,100171.84
2022-12-22T19:48:52.938Z,100169.13
2022-12-22T19:51:19.864Z,100303.75
2022-12-22T19:53:48.331Z,100167.56
2022-12-22T19:56:22.689Z,100206.84
2022-12-22T19:58:52.365Z,100230.38
2022-12-22T20:01:19.577Z,100367.25
2022-12-22T20:03:50.013Z,100197.50
2022-12-22T20:06:17.090Z,100376.09
2022-12-22T20:08:44.558Z,100213.69
2022-12-22T20:11:14.345Z,100367.44
2022-12-22T20:13:42.461Z,100362.66
2022-12-22T20:16:13.126Z,100359.97
2022-12-22T20:18:42.963Z,100154.09
2022-12-22T20:21:13.495Z,100182.69
2022-12-22T20:23:41.481Z,100215.88
2022-12-22T20:26:13.890Z,100289.31
2022-12-22T20:28:41.195Z,100307.13
2022-12-22T20:31:09.067Z,100335.75
2022-12-22T20:33:37.516Z,100353.00
2022-12-22T20:36:16.293Z,100144.25
2022-12-22T20:38:44.492Z,100215.50
2022-12-22T20:41:11.665Z,100145.44
2022-12-22T20:43:39.469Z,100195.03
2022-12-22T20:46:14.052Z,100171.28
2022-12-22T20:48:47.177Z,100159.66
2022-12-22T20:51:18.659Z,100170.16
2022-12-22T20:53:47.384Z,100191.00
2022-12-22T20:56:20.717Z,100321.00
2022-12-22T20:58:47.935Z,100114.16
2022-12-22T21:01:15.443Z,100307.19
2022-12-22T21:03:44.332Z,100310.97
2022-12-22T21:06:23.906Z,100119.47
2022-12-22T21:08:51.188Z,100112.53
2022-12-22T21:11:17.870Z,100116.00
2022-12-22T21:13:44.796Z,100210.09
2022-12-22T21:16:14.616Z,100291.88
2022-12-22T21:18:43.064Z,100217.69
2022-12-22T21:21:10.804Z,100305.09
2022-12-22T21:23:37.638Z,100212.78
2022-12-22T21:26:05.957Z,100332.56
2022-12-22T21:28:35.657Z,100152.09
2022-12-22T21:31:05.375Z,100316.66
2022-12-22T21:33:32.177Z,100271.06
2022-12-22T21:36:01.836Z,100277.50
2022-12-22T21:38:32.843Z,100333.09
2022-12-22T21:40:59.602Z,100315.28
2022-12-22T21:43:26.353Z,100081.00
2022-12-22T21:45:53.166Z,100306.16
2022-12-22T21:48:21.099Z,100262.44
2022-12-22T21:50:48.889Z,100311.03
2022-12-22T21:53:21.992Z,100248.19
2022-12-22T21:55:49.915Z,100227.97
2022-12-22T21:58:17.133Z,100321.81
2022-12-22T22:00:47.589Z,100285.69
2022-12-22T22:03:15.695Z,100238.78
2022-12-22T22:05:56.328Z,100160.00
2022-12-22T22:08:24.665Z,100268.69
2022-12-22T22:10:51.640Z,100207.47
2022-12-22T22:13:18.493Z,100143.28
2022-12-22T22:15:45.243Z,100161.38
2022-12-22T22:18:15.616Z,100330.19
2022-12-22T22:20:42.743Z,100324.81
2022-12-22T22:23:11.208Z,100314.31
2022-12-22T22:25:39.579Z,100147.09
2022-12-22T22:28:09.502Z,100106.97
2022-12-22T22:30:40.701Z,100147.06
2022-12-22T22:33:07.478Z,100220.50
2022-12-22T22:35:34.400Z,100181.66
2022-12-22T22:38:01.419Z,100112.66
2022-12-22T22:40:28.227Z,100176.78
2022-12-22T22:42:56.308Z,100163.88
2022-12-22T22:45:23.525Z,100325.13
2022-12-22T22:47:50.741Z,100330.53
2022-12-22T22:50:17.859Z,100103.19
2022-12-22T22:52:45.159Z,100206.69
2022-12-22T22:55:12.718Z,100149.81
2022-12-22T22:57:39.504Z,100149.03
2022-12-22T23:00:10.968Z,100327.03
2022-12-22T23:02:38.559Z,100232.91
2022-12-22T23:05:06.773Z,100209.44
2022-12-22T23:07:33.857Z,100152.84
2022-12-22T23:10:00.794Z,100251.25
2022-12-22T23:12:27.679Z,100336.47
2022-12-22T23:14:54.459Z,100285.25
2022-12-22T23:17:22.642Z,100305.22
2022-12-22T23:19:49.675Z,100304.16
2022-12-22T23:22:17.775Z,100193.28
2022-12-22T23:24:44.647Z,100135.88
2022-12-22T23:27:11.823Z,100267.69
2022-12-22T23:29:38.789Z,100193.03
2022-12-22T23:32:07.642Z,100322.75
2022-12-22T23:41:57.837Z,100302.47
2022-12-22T23:44:25.823Z,100328.41
2022-12-22T23:46:53.128Z,100304.94
2022-12-22T23:49:20.296Z,100322.47
2022-12-22T23:51:47.277Z,100314.94
2022-12-22T23:54:14.153Z,100265.81
2022-12-22T23:56:41.008Z,100218.91
2022-12-22T23:59:09.196Z,100170.13
